Main page
METAR-TAF:

METAR-TAF

Airports :

Piacenza, Italy

Piacenza Air Base

latitude: 44-55N, longitude: 009-44E, elevation: 134 m

Current weather observation

The report was made 8 hours and 44 minutes ago, at 17:55 UTC
Wind 8 kt from the Northwest
Temperature 28°C
Humidity 14%
Pressure 1002 hPa
Visibility 10 km or more
Few clouds at a height of 3500 ft

METAR: LIMS 251755Z 32008KT 9999 FEW035 28/M02 Q1002 RMK FEW VIS MIN 9999 WIND THR30 30008KT BLU

Time: 04:39 (02:39 UTC)

Forecast

The report was made 9 hours and 39 minutes ago, at 17:00 UTC
Forecast valid from 25 at 18 UTC to 26 at 03 UTC
Wind 10 kt from the North
Few clouds at a height of 3000 ft
Probability 40% :
Temporary
from 25 at 18 UTC to 26 at 01 UTC
Wind 10 kt from the West/Southwest with gusts up to 20 kt

TAF: LIMS 251700Z 2518/2603 35010KT FEW030 PROB40 TEMPO 2518/2601 24010G20KT

Weather observations and forecasts of more than 4000 airports (METAR and TAF reports).

The available stations are represented by yellow and red dots on the map.

Hover mouse over dot to see the name of the station.

Then click to see weather observations and forecasts.

To change the map : click on the green buttons with a black cross to zoom in, on the green button with a dash to zoom out, or on the green arrows for adjacent maps.


METAR-TAF: